createdAt,value
2018-08-04T00:00:40.090Z,101967.05
2018-08-04T00:03:09.142Z,101962.05
2018-08-04T00:05:38.059Z,101967.87
2018-08-04T00:08:07.007Z,101954.99
2018-08-04T00:10:35.904Z,101962.58
2018-08-04T00:13:05.660Z,101962.31
2018-08-04T00:15:34.586Z,101964.28
2018-08-04T00:18:03.591Z,101959.39
2018-08-04T00:20:32.537Z,101953.54
2018-08-04T00:23:01.465Z,101956.12
2018-08-04T00:25:30.727Z,101957.95
2018-08-04T00:27:59.640Z,101958.19
2018-08-04T00:30:28.547Z,101959.75
2018-08-04T00:32:57.426Z,101955.23
2018-08-04T00:35:26.312Z,101951.37
2018-08-04T00:37:55.287Z,101956.30
2018-08-04T00:40:25.283Z,101950.27
2018-08-04T00:42:54.177Z,101936.91
2018-08-04T00:45:23.062Z,101941.92
2018-08-04T00:47:51.996Z,101949.44
2018-08-04T00:50:21.968Z,101950.34
2018-08-04T00:52:50.894Z,101940.16
2018-08-04T00:55:19.855Z,101937.61
2018-08-04T00:57:48.774Z,101941.79
2018-08-04T01:00:17.818Z,101941.15
2018-08-04T01:02:46.704Z,101947.54
2018-08-04T01:05:15.597Z,101943.20
2018-08-04T01:07:44.537Z,101939.27
2018-08-04T01:10:13.443Z,101940.50
2018-08-04T01:12:42.358Z,101938.80
2018-08-04T01:15:11.261Z,101931.83
2018-08-04T01:17:40.280Z,101930.80
2018-08-04T01:20:09.475Z,101927.59
2018-08-04T01:22:38.366Z,101940.34
2018-08-04T01:25:07.914Z,101937.50
2018-08-04T01:27:37.580Z,101938.28
2018-08-04T01:30:06.832Z,101935.27
2018-08-04T01:32:35.747Z,101944.91
2018-08-04T01:35:04.691Z,101936.20
2018-08-04T01:37:33.611Z,101929.57
2018-08-04T01:40:02.511Z,101927.73
2018-08-04T01:42:32.566Z,101930.00
2018-08-04T01:45:01.505Z,101936.50
2018-08-04T01:47:30.353Z,101939.66
2018-08-04T01:49:59.327Z,101932.95
2018-08-04T01:52:28.211Z,101939.14
2018-08-04T01:54:57.170Z,101940.80
2018-08-04T01:57:26.074Z,101944.81
2018-08-04T01:59:54.969Z,101949.73
2018-08-04T02:02:23.926Z,101951.70
2018-08-04T02:04:52.977Z,101952.37
2018-08-04T02:07:22.356Z,101951.56
2018-08-04T02:09:52.071Z,101948.83
2018-08-04T02:12:26.827Z,101941.73
2018-08-04T02:15:01.287Z,101945.36
2018-08-04T02:17:30.173Z,101936.31
2018-08-04T02:19:59.191Z,101933.79
2018-08-04T02:22:28.061Z,101936.52
2018-08-04T02:24:57.031Z,101938.89
2018-08-04T02:27:25.910Z,101935.80
2018-08-04T02:29:54.826Z,101928.12
2018-08-04T02:32:23.786Z,101919.23
2018-08-04T02:34:52.691Z,101916.84
2018-08-04T02:37:21.671Z,101915.47
2018-08-04T02:39:50.575Z,101918.53
2018-08-04T02:42:19.467Z,101918.83
2018-08-04T02:44:48.948Z,101916.09
2018-08-04T02:47:17.879Z,101921.66
2018-08-04T02:49:46.813Z,101920.25
2018-08-04T02:52:15.698Z,101915.64
2018-08-04T02:54:44.628Z,101915.17
2018-08-04T02:57:14.020Z,101920.33
2018-08-04T02:59:42.904Z,101917.14
2018-08-04T03:02:11.971Z,101911.74
2018-08-04T03:04:40.943Z,101904.44
2018-08-04T03:07:09.842Z,101911.23
2018-08-04T03:09:39.617Z,101911.23
2018-08-04T03:12:08.550Z,101909.77
2018-08-04T03:14:37.459Z,101910.56
2018-08-04T03:17:07.028Z,101913.58
2018-08-04T03:19:36.053Z,101913.54
2018-08-04T03:22:04.983Z,101914.34
2018-08-04T03:24:34.013Z,101907.67
2018-08-04T03:27:03.053Z,101913.97
2018-08-04T03:29:31.975Z,101918.20
2018-08-04T03:32:01.520Z,101914.50
2018-08-04T03:34:30.467Z,101924.48
2018-08-04T03:36:59.417Z,101920.29
2018-08-04T03:39:28.311Z,101926.61
2018-08-04T03:41:58.289Z,101928.61
2018-08-04T03:44:27.179Z,101923.75
2018-08-04T03:46:56.145Z,101923.45
2018-08-04T03:49:25.049Z,101925.88
2018-08-04T03:51:53.949Z,101927.68
2018-08-04T03:54:22.841Z,101932.27
2018-08-04T03:56:51.778Z,101921.86
2018-08-04T03:59:20.687Z,101919.96
2018-08-04T04:01:49.597Z,101917.39
2018-08-04T04:04:18.549Z,101923.23
2018-08-04T04:06:47.499Z,101921.84
2018-08-04T04:09:16.455Z,101930.08
2018-08-04T04:11:45.335Z,101929.87
2018-08-04T04:14:14.295Z,101929.95
2018-08-04T04:16:43.191Z,101934.27
2018-08-04T04:19:12.087Z,101928.66
2018-08-04T04:21:40.969Z,101933.84
2018-08-04T04:24:09.940Z,101932.03
2018-08-04T04:26:38.824Z,101930.56
2018-08-04T04:29:07.817Z,101930.08
2018-08-04T04:31:36.708Z,101927.59
2018-08-04T04:34:06.815Z,101927.55
2018-08-04T04:36:35.891Z,101923.00
2018-08-04T04:39:07.379Z,101922.49
2018-08-04T04:41:36.384Z,101926.54
2018-08-04T04:44:05.587Z,101925.88
2018-08-04T04:46:38.806Z,101930.36
2018-08-04T04:49:09.758Z,101927.02
2018-08-04T04:51:39.264Z,101932.86
2018-08-04T04:54:08.185Z,101928.46
2018-08-04T04:56:42.380Z,101936.41
2018-08-04T04:59:11.287Z,101936.48
2018-08-04T05:01:40.211Z,101941.19
2018-08-04T05:04:09.097Z,101937.45
2018-08-04T05:06:38.022Z,101938.72
2018-08-04T05:09:07.687Z,101937.74
2018-08-04T05:11:36.578Z,101943.55
2018-08-04T05:14:05.500Z,101950.52
2018-08-04T05:16:34.484Z,101948.77
2018-08-04T05:19:03.360Z,101944.14
2018-08-04T05:21:32.358Z,101947.25
2018-08-04T05:24:01.258Z,101952.92
2018-08-04T05:26:30.157Z,101949.11
2018-08-04T05:28:59.151Z,101947.38
2018-08-04T05:31:28.034Z,101954.45
2018-08-04T05:33:56.922Z,101953.77
2018-08-04T05:36:25.842Z,101962.48
2018-08-04T05:38:54.778Z,101963.23
2018-08-04T05:41:23.676Z,101968.94
2018-08-04T05:43:52.676Z,101972.52
2018-08-04T05:46:24.712Z,101976.11
2018-08-04T05:48:55.742Z,101979.20
2018-08-04T05:51:25.690Z,101974.47
2018-08-04T05:53:54.622Z,101981.03
2018-08-04T05:56:23.853Z,101978.83
2018-08-04T05:58:53.039Z,101976.73
2018-08-04T06:01:24.052Z,101980.17
2018-08-04T06:03:53.117Z,101973.34
2018-08-04T06:06:22.018Z,101974.20
2018-08-04T06:08:50.896Z,101977.34
2018-08-04T06:11:19.871Z,101981.28
2018-08-04T06:13:48.863Z,101981.43
2018-08-04T06:16:17.794Z,101986.73
2018-08-04T06:18:46.730Z,101991.44
2018-08-04T06:21:15.708Z,101989.06
2018-08-04T06:23:44.595Z,101984.93
2018-08-04T06:26:13.545Z,101986.55
2018-08-04T06:28:42.454Z,101976.64
2018-08-04T06:31:11.383Z,101982.45
2018-08-04T06:33:40.272Z,101990.75
2018-08-04T06:36:09.288Z,101988.75
2018-08-04T06:38:38.240Z,101988.71
2018-08-04T06:41:07.316Z,101995.55
2018-08-04T06:43:36.253Z,101996.72
2018-08-04T06:46:05.249Z,101992.34
2018-08-04T06:48:34.256Z,101998.24
2018-08-04T06:51:03.186Z,101999.23
2018-08-04T06:53:32.136Z,101998.66
2018-08-04T06:56:01.132Z,101999.22
2018-08-04T06:58:30.148Z,101998.06
2018-08-04T07:00:59.034Z,101995.09
2018-08-04T07:03:28.038Z,101999.37
2018-08-04T07:05:57.028Z,102002.16
2018-08-04T07:08:25.952Z,102003.47
2018-08-04T07:10:55.007Z,102006.64
2018-08-04T07:13:23.888Z,102005.14
2018-08-04T07:15:52.812Z,101999.70
2018-08-04T07:18:21.721Z,102004.69
2018-08-04T07:20:50.667Z,102005.57
2018-08-04T07:23:19.572Z,102002.91
2018-08-04T07:25:48.522Z,102013.11
2018-08-04T07:28:17.440Z,102015.33
2018-08-04T07:30:46.346Z,102014.80
2018-08-04T07:33:15.332Z,102019.05
2018-08-04T07:35:44.278Z,102017.64
2018-08-04T07:38:13.200Z,102021.16
2018-08-04T07:40:42.133Z,102024.45
2018-08-04T07:43:11.039Z,102027.20
2018-08-04T07:45:39.930Z,102038.29
2018-08-04T07:48:08.943Z,102038.73
2018-08-04T07:50:37.834Z,102038.62
2018-08-04T07:53:06.796Z,102027.05
2018-08-04T07:55:36.844Z,102037.66
2018-08-04T07:58:05.790Z,102036.87
2018-08-04T08:00:34.754Z,102037.03
2018-08-04T08:03:03.948Z,102035.34
2018-08-04T08:05:32.876Z,102032.94
2018-08-04T08:08:01.800Z,102030.63
2018-08-04T08:10:30.812Z,102027.93
2018-08-04T08:12:59.632Z,102027.19
2018-08-04T08:15:28.572Z,102028.31
2018-08-04T08:17:57.478Z,102044.20
2018-08-04T08:20:26.420Z,102039.92
2018-08-04T08:22:55.361Z,102046.50
2018-08-04T08:25:24.306Z,102037.69
2018-08-04T08:27:53.202Z,102042.99
2018-08-04T08:30:22.131Z,102037.65
2018-08-04T08:32:51.058Z,102038.73
2018-08-04T08:35:19.983Z,102038.92
2018-08-04T08:37:48.946Z,102035.12
2018-08-04T08:40:17.921Z,102045.46
2018-08-04T08:42:46.894Z,102035.55
2018-08-04T08:45:15.823Z,102033.94
2018-08-04T08:47:44.775Z,102036.11
2018-08-04T08:50:13.709Z,102041.00
2018-08-04T08:52:42.587Z,102043.10
2018-08-04T08:55:11.578Z,102041.47
2018-08-04T08:57:40.550Z,102041.04
2018-08-04T09:00:11.592Z,102043.31
2018-08-04T09:02:40.507Z,102044.09
2018-08-04T09:05:10.590Z,102046.98
2018-08-04T09:07:39.540Z,102049.84
2018-08-04T09:10:11.152Z,102051.84
2018-08-04T09:12:40.117Z,102057.77
2018-08-04T09:15:09.432Z,102052.14
2018-08-04T09:17:38.352Z,102046.83
2018-08-04T09:20:08.459Z,102045.77
2018-08-04T09:22:37.385Z,102047.96
2018-08-04T09:25:07.036Z,102048.03
2018-08-04T09:27:36.070Z,102041.81
2018-08-04T09:30:07.260Z,102043.99
2018-08-04T09:32:36.402Z,102044.81
2018-08-04T09:35:05.470Z,102050.84
2018-08-04T09:37:34.362Z,102045.24
2018-08-04T09:40:03.419Z,102039.09
2018-08-04T09:42:32.312Z,102038.70
2018-08-04T09:45:01.208Z,102042.12
2018-08-04T09:47:30.174Z,102044.13
2018-08-04T09:49:59.100Z,102040.41
2018-08-04T09:52:28.155Z,102042.31
2018-08-04T09:54:57.008Z,102042.48
2018-08-04T09:57:25.976Z,102042.31
2018-08-04T09:59:54.870Z,102053.71
2018-08-04T10:02:24.644Z,102045.58
2018-08-04T10:04:54.217Z,102050.25
2018-08-04T10:07:23.229Z,102051.18
2018-08-04T10:09:52.499Z,102050.69
2018-08-04T10:12:21.450Z,102044.05
2018-08-04T10:14:50.366Z,102053.13
2018-08-04T10:17:19.229Z,102059.24
2018-08-04T10:19:48.127Z,102060.77
2018-08-04T10:22:18.061Z,102060.70
2018-08-04T10:24:46.939Z,102058.73
2018-08-04T10:27:15.903Z,102056.75
2018-08-04T10:29:44.853Z,102052.95
2018-08-04T10:32:13.925Z,102045.58
2018-08-04T10:34:42.720Z,102055.52
2018-08-04T10:37:11.629Z,102051.52
2018-08-04T10:39:40.499Z,102055.64
2018-08-04T10:42:09.511Z,102058.11
2018-08-04T10:44:38.451Z,102053.09
2018-08-04T10:47:07.333Z,102058.05
2018-08-04T10:49:36.297Z,102059.56
2018-08-04T10:52:05.219Z,102063.77
2018-08-04T10:54:34.163Z,102060.80
2018-08-04T10:57:03.108Z,102056.73
2018-08-04T10:59:32.041Z,102062.92
2018-08-04T11:02:01.015Z,102054.89
2018-08-04T11:04:29.947Z,102061.88
2018-08-04T11:06:58.887Z,102063.75
2018-08-04T11:09:27.811Z,102078.21
2018-08-04T11:11:56.743Z,102065.81
2018-08-04T11:14:26.718Z,102057.56
2018-08-04T11:16:55.615Z,102059.61
2018-08-04T11:19:24.583Z,102073.40
2018-08-04T11:21:54.668Z,102062.03
2018-08-04T11:24:23.592Z,102064.48
2018-08-04T11:26:52.647Z,102059.48
2018-08-04T11:29:21.562Z,102063.81
2018-08-04T11:31:50.580Z,102069.61
2018-08-04T11:34:19.511Z,102073.94
2018-08-04T11:36:48.494Z,102067.43
2018-08-04T11:39:17.457Z,102065.35
2018-08-04T11:41:46.423Z,102062.17
2018-08-04T11:44:15.356Z,102058.76
2018-08-04T11:46:44.261Z,102065.45
2018-08-04T11:49:13.199Z,102061.75
2018-08-04T11:51:42.290Z,102067.77
2018-08-04T11:54:11.180Z,102068.23
2018-08-04T11:56:40.174Z,102065.29
2018-08-04T11:59:09.227Z,102058.69
2018-08-04T12:01:38.189Z,102060.92
2018-08-04T12:04:07.158Z,102056.78
2018-08-04T12:06:36.081Z,102063.89
2018-08-04T12:09:08.211Z,102069.58
2018-08-04T12:13:06.520Z,102074.37
2018-08-04T12:15:35.521Z,102069.69
2018-08-04T12:18:04.485Z,102065.38
2018-08-04T12:20:33.392Z,102066.94
2018-08-04T12:23:02.278Z,102067.59
2018-08-04T12:25:31.384Z,102063.31
2018-08-04T12:28:00.208Z,102064.28
2018-08-04T12:30:29.127Z,102062.11
2018-08-04T12:32:58.039Z,102066.70
2018-08-04T12:35:27.057Z,102053.98
2018-08-04T12:37:55.943Z,102061.14
2018-08-04T12:40:24.833Z,102062.63
2018-08-04T12:42:53.789Z,102067.50
2018-08-04T12:45:23.076Z,102068.91
2018-08-04T12:47:52.019Z,102063.22
2018-08-04T12:50:20.976Z,102066.30
2018-08-04T12:52:49.907Z,102071.19
2018-08-04T12:55:18.857Z,102055.59
2018-08-04T12:57:47.765Z,102060.20
2018-08-04T13:00:17.852Z,102058.14
2018-08-04T13:02:46.849Z,102057.31
2018-08-04T13:05:15.755Z,102065.97
2018-08-04T13:07:45.721Z,102062.52
2018-08-04T13:10:14.709Z,102060.37
2018-08-04T13:12:43.665Z,102044.05
2018-08-04T13:15:12.589Z,102052.98
2018-08-04T13:17:41.514Z,102048.75
2018-08-04T13:20:10.507Z,102043.89
2018-08-04T13:22:39.382Z,102053.11
2018-08-04T13:25:08.467Z,102042.23
2018-08-04T13:27:37.371Z,102050.14
2018-08-04T13:30:06.343Z,102049.47
2018-08-04T13:32:35.228Z,102045.80
2018-08-04T13:35:04.243Z,102047.06
2018-08-04T13:37:33.241Z,102045.16
2018-08-04T13:40:02.232Z,102063.13
2018-08-04T13:42:31.251Z,102062.02
2018-08-04T13:45:00.193Z,102055.20
2018-08-04T13:47:29.089Z,102057.49
2018-08-04T13:49:58.076Z,102058.45
2018-08-04T13:52:26.988Z,102070.11
2018-08-04T13:54:56.176Z,102070.05
2018-08-04T13:57:25.104Z,102065.94
2018-08-04T13:59:54.072Z,102065.77
2018-08-04T14:02:22.984Z,102069.53
2018-08-04T14:04:51.935Z,102075.41
2018-08-04T14:07:20.964Z,102084.16
2018-08-04T14:09:49.860Z,102082.64
2018-08-04T14:12:19.048Z,102082.17
2018-08-04T14:14:48.156Z,102088.28
2018-08-04T14:17:17.152Z,102077.95
2018-08-04T14:19:46.082Z,102092.12
2018-08-04T14:22:15.033Z,102096.56
2018-08-04T14:24:43.963Z,102100.55
2018-08-04T14:27:12.916Z,102105.89
2018-08-04T14:29:41.874Z,102112.18
2018-08-04T14:32:10.880Z,102106.20
2018-08-04T14:34:39.796Z,102117.77
2018-08-04T14:37:08.696Z,102125.41
2018-08-04T14:39:37.599Z,102122.60
2018-08-04T14:42:06.517Z,102108.86
2018-08-04T14:44:35.477Z,102116.39
2018-08-04T14:47:04.378Z,102121.16
2018-08-04T14:49:33.309Z,102127.91
2018-08-04T14:52:02.262Z,102118.63
2018-08-04T14:54:31.138Z,102138.66
2018-08-04T14:57:00.051Z,102117.23
2018-08-04T14:59:28.946Z,102126.95
2018-08-04T15:01:57.889Z,102131.78
2018-08-04T15:04:26.907Z,102126.64
2018-08-04T15:06:55.887Z,102118.85
2018-08-04T15:09:24.878Z,102116.79
2018-08-04T15:11:53.885Z,102123.02
2018-08-04T15:14:22.783Z,102120.86
2018-08-04T15:16:51.729Z,102118.16
2018-08-04T15:19:20.610Z,102123.38
2018-08-04T15:21:49.559Z,102120.58
2018-08-04T15:24:18.479Z,102119.56
2018-08-04T15:26:47.527Z,102121.91
2018-08-04T15:29:16.434Z,102126.27
2018-08-04T15:31:46.497Z,102136.07
2018-08-04T15:34:15.552Z,102132.08
2018-08-04T15:36:44.514Z,102134.19
2018-08-04T15:39:13.423Z,102137.30
2018-08-04T15:41:42.536Z,102124.97
2018-08-04T15:44:11.877Z,102146.55
2018-08-04T15:46:40.869Z,102137.93
2018-08-04T15:49:09.815Z,102152.06
2018-08-04T15:51:38.877Z,102144.23
2018-08-04T15:54:07.915Z,102149.20
2018-08-04T15:56:36.861Z,102149.89
2018-08-04T15:59:05.803Z,102148.66
2018-08-04T16:01:34.728Z,102146.56
2018-08-04T16:04:03.958Z,102146.72
2018-08-04T16:06:32.884Z,102146.15
2018-08-04T16:09:02.838Z,102144.66
2018-08-04T16:11:31.783Z,102162.61
2018-08-04T16:14:00.676Z,102142.87
2018-08-04T16:16:30.468Z,102135.86
2018-08-04T16:19:01.758Z,102156.45
2018-08-04T16:21:30.595Z,102158.55
2018-08-04T16:23:59.639Z,102152.11
2018-08-04T16:26:28.539Z,102155.64
2018-08-04T16:28:57.423Z,102153.02
2018-08-04T16:31:26.359Z,102162.02
2018-08-04T16:33:55.699Z,102166.48
2018-08-04T16:36:24.671Z,102175.02
2018-08-04T16:38:53.721Z,102172.27
2018-08-04T16:41:23.193Z,102165.09
2018-08-04T16:43:52.267Z,102158.45
2018-08-04T16:46:21.183Z,102164.81
2018-08-04T16:48:50.049Z,102162.31
2018-08-04T16:51:18.963Z,102160.79
2018-08-04T16:53:47.998Z,102168.16
2018-08-04T16:56:16.977Z,102164.75
2018-08-04T16:58:45.899Z,102173.39
2018-08-04T17:01:14.873Z,102172.40
2018-08-04T17:03:43.770Z,102168.89
2018-08-04T17:06:12.658Z,102175.00
2018-08-04T17:08:41.539Z,102182.59
2018-08-04T17:11:10.483Z,102165.75
2018-08-04T17:13:39.373Z,102169.36
2018-08-04T17:16:08.296Z,102181.45
2018-08-04T17:18:37.224Z,102171.03
2018-08-04T17:21:06.135Z,102174.77
2018-08-04T17:23:35.000Z,102168.19
2018-08-04T17:26:04.225Z,102169.15
2018-08-04T17:28:33.190Z,102156.36
2018-08-04T17:31:02.543Z,102169.55
2018-08-04T17:33:31.434Z,102169.79
2018-08-04T17:36:00.360Z,102181.91
2018-08-04T17:38:29.281Z,102170.64
2018-08-04T17:40:58.237Z,102163.59
2018-08-04T17:43:27.140Z,102175.87
2018-08-04T17:45:56.075Z,102168.64
2018-08-04T17:48:24.981Z,102170.66
2018-08-04T17:50:53.989Z,102177.50
2018-08-04T17:53:22.930Z,102165.65
2018-08-04T17:55:51.821Z,102167.28
2018-08-04T17:58:20.760Z,102168.53
2018-08-04T18:00:49.652Z,102158.59
2018-08-04T18:03:24.154Z,102167.31
2018-08-04T18:05:58.495Z,102175.55
2018-08-04T18:08:27.370Z,102174.45
2018-08-04T18:10:56.304Z,102179.55
2018-08-04T18:13:25.217Z,102172.95
2018-08-04T18:15:54.098Z,102174.66
2018-08-04T18:18:23.042Z,102176.86
2018-08-04T18:20:54.065Z,102172.84
2018-08-04T18:23:22.974Z,102180.81
2018-08-04T18:25:51.883Z,102180.28
2018-08-04T18:28:20.771Z,102184.26
2018-08-04T18:30:49.673Z,102186.22
2018-08-04T18:33:18.567Z,102200.52
2018-08-04T18:35:47.596Z,102198.95
2018-08-04T18:38:16.681Z,102195.27
2018-08-04T18:40:45.610Z,102202.19
2018-08-04T18:43:14.551Z,102194.08
2018-08-04T18:45:43.456Z,102198.80
2018-08-04T18:48:12.328Z,102210.39
2018-08-04T18:50:41.218Z,102204.90
2018-08-04T18:53:10.202Z,102208.17
2018-08-04T18:55:39.232Z,102200.44
2018-08-04T18:58:08.368Z,102203.11
2018-08-04T19:00:37.576Z,102204.66
2018-08-04T19:03:06.585Z,102199.27
2018-08-04T19:05:35.420Z,102208.34
2018-08-04T19:08:04.316Z,102207.49
2018-08-04T19:10:33.211Z,102205.88
2018-08-04T19:13:02.980Z,102223.02
2018-08-04T19:15:31.831Z,102224.83
2018-08-04T19:18:00.788Z,102222.06
2018-08-04T19:20:29.672Z,102215.40
2018-08-04T19:22:58.904Z,102218.19
2018-08-04T19:25:27.832Z,102222.02
2018-08-04T19:27:57.122Z,102217.75
2018-08-04T19:30:25.974Z,102217.55
2018-08-04T19:32:54.903Z,102216.48
2018-08-04T19:35:23.818Z,102226.27
2018-08-04T19:37:52.728Z,102222.21
2018-08-04T19:40:21.617Z,102225.23
2018-08-04T19:42:50.937Z,102233.81
2018-08-04T19:45:19.850Z,102229.48
2018-08-04T19:47:48.812Z,102228.53
2018-08-04T19:50:17.708Z,102239.46
2018-08-04T19:52:46.711Z,102234.23
2018-08-04T19:55:15.626Z,102239.83
2018-08-04T19:57:44.537Z,102226.47
2018-08-04T20:00:13.471Z,102228.88
2018-08-04T20:02:42.580Z,102227.13
2018-08-04T20:05:11.476Z,102236.40
2018-08-04T20:07:40.369Z,102238.57
2018-08-04T20:10:09.259Z,102238.96
2018-08-04T20:12:38.187Z,102230.59
2018-08-04T20:15:07.084Z,102236.39
2018-08-04T20:17:35.959Z,102240.22
2018-08-04T20:20:05.276Z,102241.06
2018-08-04T20:22:34.168Z,102240.97
2018-08-04T20:25:03.136Z,102235.78
2018-08-04T20:27:32.092Z,102238.31
2018-08-04T20:30:01.023Z,102244.62
2018-08-04T20:32:29.931Z,102240.33
2018-08-04T20:34:59.028Z,102244.45
2018-08-04T20:37:27.960Z,102246.21
2018-08-04T20:39:56.843Z,102251.36
2018-08-04T20:42:25.838Z,102250.59
2018-08-04T20:44:54.696Z,102252.28
2018-08-04T20:47:23.620Z,102250.52
2018-08-04T20:49:52.470Z,102251.67
2018-08-04T20:52:21.363Z,102252.35
2018-08-04T20:54:50.304Z,102253.54
2018-08-04T20:57:19.222Z,102249.80
2018-08-04T20:59:48.184Z,102256.73
2018-08-04T21:02:17.100Z,102242.23
2018-08-04T21:04:46.061Z,102247.70
2018-08-04T21:07:15.085Z,102248.67
2018-08-04T21:09:43.992Z,102264.17
2018-08-04T21:12:12.902Z,102264.87
2018-08-04T21:14:41.810Z,102264.00
2018-08-04T21:17:10.759Z,102251.98
2018-08-04T21:19:39.762Z,102261.13
2018-08-04T21:22:08.690Z,102261.13
2018-08-04T21:24:37.612Z,102256.64
2018-08-04T21:27:06.534Z,102258.80
2018-08-04T21:29:35.441Z,102258.94
2018-08-04T21:32:04.453Z,102259.17
2018-08-04T21:34:33.401Z,102260.71
2018-08-04T21:37:02.374Z,102263.94
2018-08-04T21:39:31.288Z,102259.17
2018-08-04T21:42:00.320Z,102259.57
2018-08-04T21:44:31.253Z,102258.61
2018-08-04T21:47:00.270Z,102260.66
2018-08-04T21:49:29.343Z,102258.20
2018-08-04T21:51:58.337Z,102251.59
2018-08-04T21:54:27.311Z,102261.36
2018-08-04T21:56:56.222Z,102261.53
2018-08-04T21:59:25.266Z,102258.41
2018-08-04T22:01:55.098Z,102255.98
2018-08-04T22:04:25.409Z,102261.22
2018-08-04T22:08:04.531Z,102260.08
2018-08-04T22:10:33.465Z,102266.09
2018-08-04T22:13:02.481Z,102265.50
2018-08-04T22:15:31.555Z,102257.13
2018-08-04T22:18:00.615Z,102262.97
2018-08-04T22:20:29.964Z,102260.08
2018-08-04T22:22:58.934Z,102261.91
2018-08-04T22:25:28.964Z,102254.40
2018-08-04T22:27:59.295Z,102256.02
2018-08-04T22:30:28.268Z,102250.89
2018-08-04T22:32:57.244Z,102246.94
2018-08-04T22:35:26.241Z,102248.22
2018-08-04T22:37:55.202Z,102246.55
2018-08-04T22:40:24.151Z,102248.06
2018-08-04T22:42:53.111Z,102249.36
2018-08-04T22:45:46.473Z,102260.52
2018-08-04T22:48:15.429Z,102252.48
2018-08-04T22:50:44.457Z,102259.73
2018-08-04T22:53:13.543Z,102257.16
2018-08-04T22:55:43.011Z,102263.84
2018-08-04T22:58:12.331Z,102265.27
2018-08-04T23:00:42.425Z,102261.07
2018-08-04T23:03:11.998Z,102257.37
2018-08-04T23:05:41.032Z,102256.27
2018-08-04T23:08:11.031Z,102259.45
2018-08-04T23:10:40.377Z,102254.52
2018-08-04T23:13:10.091Z,102256.30
2018-08-04T23:15:38.979Z,102264.98
2018-08-04T23:18:08.222Z,102264.52
2018-08-04T23:20:37.227Z,102266.02
2018-08-04T23:23:06.480Z,102269.39
2018-08-04T23:25:35.396Z,102271.22
2018-08-04T23:28:04.375Z,102274.09
2018-08-04T23:30:33.362Z,102268.24
2018-08-04T23:33:02.280Z,102266.66
2018-08-04T23:35:31.170Z,102270.47
2018-08-04T23:38:00.232Z,102274.05
2018-08-04T23:40:29.210Z,102270.28
2018-08-04T23:42:58.143Z,102271.33
2018-08-04T23:45:27.040Z,102279.72
2018-08-04T23:47:55.974Z,102276.20
2018-08-04T23:50:24.955Z,102274.55
2018-08-04T23:52:53.881Z,102273.48
2018-08-04T23:55:22.825Z,102275.47
2018-08-04T23:57:51.820Z,102276.79
